Time;durP1;ratioP1;P1;durP2;ratioP2;P2;SDS_P1;SDS_P2;PMS_P1;PMS_P2;Temp;Humidity;BMP_temperature;BMP_pressure;BME280_temperature;BME280_humidity;BME280_pressure;Samples;Min_cycle;Max_cycle;Signal;HPM_P1;HPM_P2
2022/10/24 00:00:59;;;;;;;1.80;0.30;;;;;;;20.92;19.04;101303.00;5012834;28;20025;-60
2022/10/24 00:03:25;;;;;;;4.80;0.40;;;;;;;20.89;19.74;101306.28;5011292;28;20426;-59
2022/10/24 00:05:51;;;;;;;1.88;0.20;;;;;;;20.72;19.80;101312.69;5012531;28;20033;-60
2022/10/24 00:08:17;;;;;;;0.75;0.30;;;;;;;20.76;18.29;101311.06;5011179;28;20338;-59
2022/10/24 00:10:46;;;;;;;2.70;0.20;;;;;;;20.73;18.97;101313.50;5012539;28;20033;-60
2022/10/24 00:13:14;;;;;;;1.55;0.30;;;;;;;20.68;19.48;101317.00;5011421;28;20033;-60
2022/10/24 00:15:45;;;;;;;1.52;0.30;;;;;;;20.65;20.02;101328.41;5012706;28;20071;-59
2022/10/24 00:18:12;;;;;;;0.35;0.10;;;;;;;20.68;20.20;101337.97;5010683;28;20033;-60
2022/10/24 00:20:38;;;;;;;1.17;0.35;;;;;;;20.58;20.85;101335.97;5012832;28;20029;-60
2022/10/24 00:23:05;;;;;;;0.88;0.30;;;;;;;20.54;19.90;101340.28;5008494;28;20471;-57
2022/10/24 00:25:31;;;;;;;1.90;0.70;;;;;;;20.40;28.64;101342.59;5011779;28;20049;-57
2022/10/24 00:27:57;;;;;;;3.38;0.80;;;;;;;20.30;32.21;101354.22;5012190;28;20034;-58
2022/10/24 00:30:23;;;;;;;3.13;0.88;;;;;;;19.97;33.64;101355.25;4998361;28;20026;-57
2022/10/24 00:32:51;;;;;;;4.72;1.10;;;;;;;19.83;34.61;101358.63;5004983;28;20029;-58
2022/10/24 00:35:18;;;;;;;3.03;0.98;;;;;;;19.52;34.19;101350.91;5024515;28;20033;-57
2022/10/24 00:37:44;;;;;;;3.58;0.93;;;;;;;19.41;34.04;101351.84;5020123;28;20423;-57
2022/10/24 00:40:15;;;;;;;4.80;1.00;;;;;;;19.33;32.37;101343.34;4994053;28;20474;-57
2022/10/24 00:42:42;;;;;;;2.38;0.80;;;;;;;19.43;32.98;101348.88;5010903;28;20034;-57
2022/10/24 00:45:46;;;;;;;3.05;0.68;;;;;;;19.36;33.10;101348.25;5011615;28;20036;-57
2022/10/24 00:48:24;;;;;;;2.85;0.77;;;;;;;19.10;33.01;101347.94;5000425;28;20073;-57
2022/10/24 00:50:56;;;;;;;4.72;1.55;;;;;;;18.96;33.95;101354.78;5010848;28;20100;-57
2022/10/24 00:53:24;;;;;;;1.60;0.80;;;;;;;18.85;34.86;101363.84;5011524;28;20121;-57
2022/10/24 00:55:54;;;;;;;5.32;0.95;;;;;;;18.97;35.31;101361.84;5010906;28;20041;-60
2022/10/24 00:58:22;;;;;;;3.05;1.45;;;;;;;18.77;35.04;101361.53;4995284;28;20194;-60
2022/10/24 01:00:49;;;;;;;3.67;1.05;;;;;;;18.51;35.53;101365.72;4991883;28;20051;-60
2022/10/24 01:03:15;;;;;;;4.28;1.30;;;;;;;18.59;35.08;101376.13;5011161;28;20030;-60
2022/10/24 01:06:04;;;;;;;5.05;1.10;;;;;;;18.47;34.58;101374.31;4992162;28;20446;-60
2022/10/24 01:08:41;;;;;;;3.85;1.05;;;;;;;18.50;33.78;101378.44;5010731;28;20025;-60
2022/10/24 01:11:16;;;;;;;3.38;1.20;;;;;;;18.47;34.70;101377.03;5010620;28;20554;-60
2022/10/24 01:14:01;;;;;;;6.03;1.00;;;;;;;18.38;37.10;101388.53;5012008;28;20036;-60
2022/10/24 01:16:29;;;;;;;4.20;0.95;;;;;;;18.10;36.61;101384.78;5008190;28;20082;-60
2022/10/24 01:19:36;;;;;;;3.20;0.95;;;;;;;17.96;37.35;101388.03;5011534;28;20105;-60
2022/10/24 01:22:07;;;;;;;4.53;1.70;;;;;;;17.92;36.42;101395.81;5010187;28;20041;-60
2022/10/24 01:25:05;;;;;;;5.35;1.40;;;;;;;17.94;35.51;101408.06;5011996;28;20088;-60
2022/10/24 01:27:56;;;;;;;4.20;1.58;;;;;;;17.94;34.99;101418.88;5010021;28;20157;-59
2022/10/24 01:30:24;;;;;;;5.30;1.40;;;;;;;18.03;34.40;101415.78;5000880;28;20049;-61
2022/10/24 01:32:51;;;;;;;3.53;1.05;;;;;;;17.88;34.36;101424.44;4991568;28;20065;-60
2022/10/24 01:35:42;;;;;;;4.60;1.00;;;;;;;17.87;34.39;101423.59;4999145;28;20075;-60
2022/10/24 01:38:15;;;;;;;3.17;1.02;;;;;;;18.00;35.06;101430.66;5009237;28;20401;-60
2022/10/24 01:40:51;;;;;;;3.50;0.90;;;;;;;18.03;34.94;101440.97;5010924;28;20092;-60
2022/10/24 01:43:26;;;;;;;7.25;1.48;;;;;;;17.96;35.63;101442.19;5011967;28;20471;-59
2022/10/24 01:46:05;;;;;;;5.50;2.28;;;;;;;17.90;36.14;101449.41;5012802;28;20470;-47
2022/10/24 01:48:39;;;;;;;4.75;1.92;;;;;;;17.49;38.19;101458.47;5018894;28;20032;-47
2022/10/24 01:51:08;;;;;;;7.78;2.58;;;;;;;17.62;38.88;101456.38;5018496;28;20096;-51
2022/10/24 01:53:36;;;;;;;25.38;10.82;;;;;;;17.48;39.39;101456.84;5000872;28;20161;-49
2022/10/24 01:56:02;;;;;;;5.90;2.65;;;;;;;17.50;39.70;101463.69;5014374;28;20018;-48
2022/10/24 01:58:29;;;;;;;3.90;1.60;;;;;;;17.29;40.38;101475.91;5015368;28;20034;-51
2022/10/24 02:00:59;;;;;;;4.40;2.10;;;;;;;17.28;40.44;101478.88;5015062;28;20042;-50
2022/10/24 02:03:43;;;;;;;6.20;1.75;;;;;;;17.09;41.00;101484.38;5015450;28;20029;-50
2022/10/24 02:06:17;;;;;;;5.50;1.75;;;;;;;16.86;41.65;101481.63;5015275;28;20030;-50
2022/10/24 02:08:49;;;;;;;6.25;1.95;;;;;;;17.07;41.82;101478.38;5015249;28;20379;-51
2022/10/24 02:11:15;;;;;;;5.68;1.60;;;;;;;16.85;42.46;101482.69;5015287;28;20034;-50
2022/10/24 02:14:01;;;;;;;6.50;1.70;;;;;;;16.98;42.61;101484.34;5015293;28;20075;-48
2022/10/24 02:16:29;;;;;;;10.10;1.65;;;;;;;16.94;43.40;101502.94;5014625;28;20113;-50
2022/10/24 02:18:56;;;;;;;6.78;1.90;;;;;;;16.98;43.39;101498.69;5015010;28;20475;-47
2022/10/24 02:21:59;;;;;;;5.15;1.92;;;;;;;16.96;43.70;101503.53;5014962;28;20026;-50
2022/10/24 02:25:03;;;;;;;4.20;1.83;;;;;;;16.44;44.57;101510.50;4991901;28;20490;-50
2022/10/24 02:27:34;;;;;;;5.28;1.38;;;;;;;16.46;44.70;101525.44;4962332;28;20153;-48
2022/10/24 02:30:08;;;;;;;4.35;1.50;;;;;;;16.36;44.65;101520.56;4997687;28;20486;-51
2022/10/24 02:32:44;;;;;;;5.70;1.70;;;;;;;16.23;45.24;101531.53;4994672;28;20046;-50
2022/10/24 02:35:13;;;;;;;4.38;1.45;;;;;;;16.05;45.64;101528.84;5009418;28;20478;-50
2022/10/24 02:37:46;;;;;;;6.63;1.42;;;;;;;16.00;45.97;101537.63;5014149;28;20040;-51
2022/10/24 02:40:14;;;;;;;5.97;1.67;;;;;;;16.14;45.48;101549.09;5014535;28;20029;-46
2022/10/24 02:42:43;;;;;;;6.25;1.60;;;;;;;16.17;45.51;101550.53;5014184;28;20033;-47
2022/10/24 02:45:11;;;;;;;10.35;2.10;;;;;;;16.17;45.52;101555.94;5010931;28;20470;-47
2022/10/24 02:47:40;;;;;;;5.18;1.23;;;;;;;16.26;45.60;101557.25;5013824;28;20029;-52
2022/10/24 02:50:08;;;;;;;5.13;1.92;;;;;;;16.27;45.63;101567.03;5013972;28;20064;-52
2022/10/24 02:52:36;;;;;;;6.00;1.60;;;;;;;16.23;45.66;101572.06;5014355;28;20436;-48
2022/10/24 02:55:03;;;;;;;5.72;1.65;;;;;;;16.15;45.81;101574.22;5013650;28;20106;-49
2022/10/24 02:57:29;;;;;;;3.90;1.10;;;;;;;16.06;46.05;101581.81;5013744;28;20025;-53
2022/10/24 02:59:55;;;;;;;6.00;1.55;;;;;;;15.97;46.61;101581.25;5013942;28;20107;-52
2022/10/24 03:02:22;;;;;;;5.15;1.75;;;;;;;15.90;46.55;101590.50;5013668;28;20109;-49
2022/10/24 03:04:48;;;;;;;6.10;1.77;;;;;;;15.84;46.62;101597.59;5013687;28;20030;-52
2022/10/24 03:07:15;;;;;;;5.65;2.80;;;;;;;15.84;46.50;101593.03;5013365;28;20026;-51
2022/10/24 03:09:42;;;;;;;9.10;2.80;;;;;;;15.73;46.88;101598.34;5013487;28;20074;-50
2022/10/24 03:12:12;;;;;;;7.25;2.80;;;;;;;15.68;46.59;101593.59;5012969;28;20036;-51
2022/10/24 03:14:38;;;;;;;7.53;3.17;;;;;;;15.64;46.53;101602.34;5012032;28;20049;-49
2022/10/24 03:17:05;;;;;;;5.75;2.60;;;;;;;15.65;46.55;101593.19;5012374;28;20060;-52
2022/10/24 03:19:31;;;;;;;10.77;2.92;;;;;;;15.63;46.47;101589.91;5012892;28;20038;-51
2022/10/24 03:21:57;;;;;;;5.28;2.33;;;;;;;15.53;46.73;101607.38;5013584;28;20033;-48
2022/10/24 03:24:23;;;;;;;5.95;2.33;;;;;;;15.48;46.91;101609.09;5013155;28;20100;-50
2022/10/24 03:26:51;;;;;;;7.82;2.80;;;;;;;15.45;46.83;101604.97;5013411;28;20109;-48
2022/10/24 03:29:20;;;;;;;8.43;2.78;;;;;;;15.36;47.03;101613.53;5012213;28;20385;-49
2022/10/24 03:31:46;;;;;;;6.60;3.20;;;;;;;15.25;47.12;101598.88;5013477;28;20088;-49
2022/10/24 03:34:12;;;;;;;7.82;3.78;;;;;;;15.20;47.71;101601.41;5010817;28;20018;-51
2022/10/24 03:36:39;;;;;;;9.95;3.70;;;;;;;15.06;47.71;101606.06;5013341;28;20435;-49
2022/10/24 03:39:05;;;;;;;6.95;3.95;;;;;;;14.99;48.04;101611.53;5011598;28;20029;-51
2022/10/24 03:41:32;;;;;;;7.15;4.00;;;;;;;14.91;48.35;101611.75;5010940;28;20335;-49
2022/10/24 03:43:58;;;;;;;8.45;3.40;;;;;;;14.83;48.44;101606.63;5013168;28;20096;-48
2022/10/24 03:46:24;;;;;;;11.82;3.60;;;;;;;14.77;48.66;101610.19;5012000;28;20030;-51
2022/10/24 03:48:50;;;;;;;7.55;3.45;;;;;;;14.80;49.55;101615.13;5012746;28;20509;-48
2022/10/24 03:51:16;;;;;;;5.30;2.58;;;;;;;14.75;49.77;101620.34;5011354;28;20185;-52
2022/10/24 03:53:43;;;;;;;8.43;2.78;;;;;;;14.64;50.03;101621.00;5013189;28;20057;-50
2022/10/24 03:56:09;;;;;;;7.68;3.20;;;;;;;14.69;50.74;101615.81;5011501;28;20109;-48
2022/10/24 03:58:35;;;;;;;6.85;2.97;;;;;;;14.56;50.95;101626.66;5012741;28;20018;-50
2022/10/24 04:01:01;;;;;;;6.68;2.70;;;;;;;14.53;50.99;101634.09;5011738;28;20032;-50
2022/10/24 04:03:27;;;;;;;9.30;2.28;;;;;;;14.47;51.67;101640.34;5012886;28;20026;-50
2022/10/24 04:05:54;;;;;;;11.00;3.03;;;;;;;14.41;52.35;101640.34;5009062;28;20395;-48
2022/10/24 04:08:20;;;;;;;8.23;2.78;;;;;;;14.64;51.98;101637.19;5012540;28;20029;-51
2022/10/24 04:10:48;;;;;;;6.65;2.65;;;;;;;14.37;52.66;101637.22;5010811;28;20038;-50
2022/10/24 04:13:14;;;;;;;7.68;2.42;;;;;;;14.44;52.16;101632.66;5013070;28;20034;-49
2022/10/24 04:15:41;;;;;;;5.35;2.08;;;;;;;14.34;52.31;101629.59;5009495;28;20026;-52
2022/10/24 04:18:07;;;;;;;6.30;2.40;;;;;;;14.25;52.38;101641.63;5012383;28;20497;-50
2022/10/24 04:20:33;;;;;;;10.98;2.33;;;;;;;14.20;53.28;101650.31;5011403;28;20406;-51
2022/10/24 04:23:00;;;;;;;4.63;1.92;;;;;;;14.07;53.68;101644.13;5013674;28;20021;-47
2022/10/24 04:25:26;;;;;;;3.80;1.75;;;;;;;14.25;54.23;101649.69;5011534;28;20497;-49
2022/10/24 04:27:52;;;;;;;5.03;1.38;;;;;;;14.25;55.03;101644.31;5013011;28;20037;-50
2022/10/24 04:30:18;;;;;;;3.63;1.00;;;;;;;14.38;54.54;101646.97;5011053;28;20040;-53
2022/10/24 04:32:45;;;;;;;3.95;1.20;;;;;;;14.17;54.90;101649.94;5010698;28;20022;-52
2022/10/24 04:35:11;;;;;;;6.75;1.17;;;;;;;14.19;54.96;101642.47;5012359;28;20028;-51
2022/10/24 04:37:37;;;;;;;3.28;1.00;;;;;;;14.42;54.03;101645.50;5010751;28;20447;-49
2022/10/24 04:40:04;;;;;;;4.32;1.25;;;;;;;14.15;54.67;101647.41;5012198;28;20026;-48
2022/10/24 04:42:30;;;;;;;3.85;1.40;;;;;;;14.37;53.89;101639.91;5010736;28;20025;-51
2022/10/24 04:44:56;;;;;;;2.25;1.10;;;;;;;14.33;54.21;101640.56;5012389;28;20101;-49
2022/10/24 04:47:22;;;;;;;3.28;1.08;;;;;;;14.46;54.00;101646.75;5009939;28;20042;-49
2022/10/24 04:49:49;;;;;;;6.13;1.25;;;;;;;14.41;54.22;101643.03;5011940;28;20104;-50
2022/10/24 04:52:15;;;;;;;2.67;0.90;;;;;;;14.58;53.94;101640.72;5010741;28;20096;-49
2022/10/24 04:54:41;;;;;;;5.05;1.15;;;;;;;14.56;53.65;101646.34;5011996;28;20370;-52
2022/10/24 04:57:07;;;;;;;3.17;1.17;;;;;;;14.36;54.27;101637.44;5008295;28;20029;-50
2022/10/24 04:59:33;;;;;;;3.92;1.23;;;;;;;14.46;53.68;101643.22;5011899;28;20109;-47
2022/10/24 05:01:59;;;;;;;3.42;1.75;;;;;;;14.52;53.23;101647.78;5010523;28;20033;-51
2022/10/24 05:04:26;;;;;;;4.18;1.20;;;;;;;14.62;52.37;101644.66;5011965;28;20053;-47
2022/10/24 05:06:52;;;;;;;4.70;1.65;;;;;;;14.45;52.45;101645.09;5010408;28;20117;-49
2022/10/24 05:09:18;;;;;;;2.90;1.52;;;;;;;14.40;52.29;101646.75;5011424;28;20060;-51
2022/10/24 05:11:44;;;;;;;5.38;1.83;;;;;;;14.34;52.23;101648.44;5010746;28;20030;-50
2022/10/24 05:14:10;;;;;;;4.05;1.35;;;;;;;14.30;51.91;101640.97;5011722;28;20068;-50
2022/10/24 05:16:38;;;;;;;5.18;1.33;;;;;;;14.22;51.78;101652.81;5009673;28;20022;-51
2022/10/24 05:19:04;;;;;;;4.43;1.27;;;;;;;14.24;51.60;101669.59;5011209;28;20050;-49
2022/10/24 05:21:32;;;;;;;4.55;1.60;;;;;;;14.13;51.84;101679.13;5009507;28;20041;-51
2022/10/24 05:23:58;;;;;;;3.72;0.95;;;;;;;14.23;51.34;101687.59;5010126;28;20040;-50
2022/10/24 05:26:24;;;;;;;2.35;0.98;;;;;;;14.19;51.06;101685.53;5011635;28;20026;-50
2022/10/24 05:28:50;;;;;;;5.68;1.25;;;;;;;14.16;51.10;101692.19;5009849;28;20494;-50
2022/10/24 05:31:17;;;;;;;4.85;1.38;;;;;;;14.17;51.35;101703.78;4991975;28;20031;-50
2022/10/24 05:33:43;;;;;;;4.63;1.30;;;;;;;14.14;51.56;101696.94;4992158;28;20027;-50
2022/10/24 05:36:09;;;;;;;3.85;1.55;;;;;;;14.21;51.62;101702.31;5010023;28;20030;-53
2022/10/24 05:38:35;;;;;;;3.00;1.40;;;;;;;14.12;51.17;101693.63;5011494;28;20034;-47
2022/10/24 05:41:02;;;;;;;3.42;1.38;;;;;;;14.26;50.95;101686.34;5007745;28;20026;-48
2022/10/24 05:43:28;;;;;;;3.92;1.38;;;;;;;14.08;51.33;101689.69;5011294;28;20021;-48
2022/10/24 05:45:54;;;;;;;3.00;1.20;;;;;;;13.76;51.85;101688.66;5009660;28;20045;-49
2022/10/24 05:48:20;;;;;;;3.90;1.30;;;;;;;13.43;52.25;101697.50;5011168;28;20026;-47
2022/10/24 05:50:46;;;;;;;4.50;1.25;;;;;;;13.42;52.01;101678.88;5009662;28;20099;-49
2022/10/24 05:53:13;;;;;;;3.42;1.40;;;;;;;13.30;52.61;101692.09;5011756;28;20521;-47
2022/10/24 05:55:39;;;;;;;6.75;1.85;;;;;;;13.17;52.63;101694.75;5009241;28;20034;-47
2022/10/24 05:58:06;;;;;;;3.53;1.35;;;;;;;13.21;52.51;101693.31;5011524;28;20096;-47
2022/10/24 06:00:32;;;;;;;5.47;1.20;;;;;;;13.16;52.97;101701.16;5010009;28;20033;-47
2022/10/24 06:03:00;;;;;;;5.95;1.38;;;;;;;13.30;52.51;101708.25;5011388;28;20628;-49
2022/10/24 06:05:26;;;;;;;2.40;1.00;;;;;;;13.31;52.34;101709.88;5009653;28;20498;-47
2022/10/24 06:07:52;;;;;;;4.50;1.20;;;;;;;13.33;52.51;101712.41;5011239;28;20025;-48
2022/10/24 06:10:19;;;;;;;3.67;1.00;;;;;;;13.50;52.06;101723.59;5009231;28;20033;-47
2022/10/24 06:12:45;;;;;;;3.08;1.00;;;;;;;13.34;52.74;101732.88;5011242;28;20022;-48
2022/10/24 06:15:12;;;;;;;4.78;0.95;;;;;;;13.28;52.77;101731.81;5010188;28;20033;-48
2022/10/24 06:17:38;;;;;;;3.30;0.85;;;;;;;13.32;52.71;101741.13;5010786;28;20034;-49
2022/10/24 06:20:05;;;;;;;4.80;1.10;;;;;;;13.33;52.93;101745.50;5009792;28;20026;-49
2022/10/24 06:22:31;;;;;;;5.50;1.83;;;;;;;13.20;53.45;101750.78;4993986;28;20069;-49
2022/10/24 06:24:58;;;;;;;4.97;1.88;;;;;;;12.99;53.89;101753.56;4997847;28;20032;-51
2022/10/24 06:27:25;;;;;;;3.42;1.20;;;;;;;13.17;52.99;101753.88;5010861;28;20087;-50
2022/10/24 06:29:51;;;;;;;3.92;1.23;;;;;;;13.29;52.58;101748.78;5010673;28;20045;-47
2022/10/24 06:32:18;;;;;;;3.95;1.10;;;;;;;13.46;51.97;101753.59;5014782;28;20095;-46
2022/10/24 06:34:44;;;;;;;4.05;1.40;;;;;;;13.52;52.13;101756.50;5011736;28;20021;-47
2022/10/24 06:37:10;;;;;;;2.90;1.00;;;;;;;13.55;51.84;101753.38;5013562;28;20113;-48
2022/10/24 06:39:36;;;;;;;4.38;0.77;;;;;;;13.31;51.50;101757.47;5012692;28;20120;-49
2022/10/24 06:42:03;;;;;;;2.08;0.60;;;;;;;13.55;50.37;101769.53;5014513;28;20026;-48
2022/10/24 06:44:29;;;;;;;2.30;0.88;;;;;;;13.42;50.11;101768.47;5013021;28;20041;-51
2022/10/24 06:46:56;;;;;;;2.45;0.80;;;;;;;13.39;49.96;101779.63;5013982;28;20026;-47
2022/10/24 06:49:22;;;;;;;3.22;0.90;;;;;;;13.45;49.72;101781.53;5012803;28;20042;-51
2022/10/24 06:51:48;;;;;;;3.17;0.90;;;;;;;13.57;49.78;101789.81;5014142;28;20211;-49
2022/10/24 06:54:15;;;;;;;2.20;0.60;;;;;;;13.55;49.67;101781.16;5002848;28;20057;-48
2022/10/24 06:56:41;;;;;;;3.33;0.80;;;;;;;13.81;48.74;101782.22;4994565;28;20057;-50
2022/10/24 06:59:13;;;;;;;3.20;1.10;;;;;;;13.95;48.35;101773.97;4985475;28;20101;-47
2022/10/24 07:01:40;;;;;;;3.45;0.80;;;;;;;13.90;47.88;101763.00;5013997;28;20025;-50
2022/10/24 07:04:07;;;;;;;2.53;1.02;;;;;;;13.56;48.77;101773.91;5012503;28;20390;-49
2022/10/24 07:06:34;;;;;;;3.13;1.13;;;;;;;13.55;49.02;101756.06;5014201;28;20129;-48
2022/10/24 07:09:02;;;;;;;3.08;1.05;;;;;;;13.47;49.43;101749.84;5011502;28;20367;-50
2022/10/24 07:11:28;;;;;;;5.88;1.10;;;;;;;13.40;50.22;101749.03;5013660;28;20121;-49
2022/10/24 07:13:54;;;;;;;4.85;1.10;;;;;;;13.24;50.95;101753.94;5012121;28;20113;-47
2022/10/24 07:16:21;;;;;;;3.67;1.10;;;;;;;13.12;51.23;101742.91;5014155;28;20021;-50
2022/10/24 07:18:47;;;;;;;2.08;0.85;;;;;;;13.31;50.61;101744.00;5012038;28;20127;-48
2022/10/24 07:21:26;;;;;;;3.83;1.00;;;;;;;13.42;50.33;101733.50;5007524;28;20093;-48
2022/10/24 07:23:53;;;;;;;1.98;1.20;;;;;;;13.31;50.06;101727.88;5001686;28;20402;-48
2022/10/24 07:26:20;;;;;;;3.92;1.02;;;;;;;13.24;49.43;101725.19;5013587;28;20026;-47
2022/10/24 07:28:52;;;;;;;3.65;1.10;;;;;;;13.32;50.06;101716.91;5011757;28;20052;-50
2022/10/24 07:31:23;;;;;;;2.55;1.05;;;;;;;13.29;50.03;101738.03;5013289;28;20030;-48
2022/10/24 07:33:51;;;;;;;3.20;1.02;;;;;;;13.32;49.96;101743.81;5012246;28;20547;-50
2022/10/24 07:36:20;;;;;;;3.40;1.20;;;;;;;13.50;48.60;101735.19;5011961;28;20494;-48
2022/10/24 07:38:50;;;;;;;1.73;0.73;;;;;;;13.31;48.04;101742.16;5011376;28;20399;-47
2022/10/24 07:41:17;;;;;;;4.95;1.05;;;;;;;12.98;48.05;101735.78;5012960;28;20041;-47
2022/10/24 07:43:44;;;;;;;4.10;0.90;;;;;;;13.04;47.86;101745.75;5011211;28;20025;-48
2022/10/24 07:46:13;;;;;;;6.50;1.17;;;;;;;12.84;48.44;101759.91;5013036;28;20026;-47
2022/10/24 07:48:41;;;;;;;2.28;0.90;;;;;;;12.77;48.68;101767.13;5011895;28;20038;-48
2022/10/24 07:51:10;;;;;;;2.28;0.80;;;;;;;12.81;48.73;101767.53;5012872;28;20137;-51
2022/10/24 07:53:36;;;;;;;2.33;0.93;;;;;;;12.85;48.64;101764.25;5010884;28;20064;-50
2022/10/24 07:56:07;;;;;;;2.20;0.70;;;;;;;13.00;48.04;101764.13;5013018;28;20022;-48
2022/10/24 07:58:34;;;;;;;1.90;0.60;;;;;;;12.86;47.37;101770.47;5011159;28;20033;-47
2022/10/24 08:01:09;;;;;;;1.48;0.70;;;;;;;12.79;47.18;101762.38;5013367;28;20053;-51
2022/10/24 08:03:35;;;;;;;3.78;0.82;;;;;;;13.00;47.25;101779.44;5011643;28;20030;-48
2022/10/24 08:06:11;;;;;;;1.33;0.65;;;;;;;12.75;47.65;101779.06;5012930;28;20030;-48
2022/10/24 08:08:37;;;;;;;2.25;0.90;;;;;;;12.91;47.58;101776.91;5010580;28;20100;-49
2022/10/24 08:11:09;;;;;;;4.93;1.00;;;;;;;13.09;47.18;101783.59;5011314;28;20454;-50
2022/10/24 08:13:35;;;;;;;2.03;0.80;;;;;;;13.01;47.43;101779.22;5012890;28;20021;-50
2022/10/24 08:16:05;;;;;;;3.15;0.75;;;;;;;12.75;47.98;101787.13;5010607;28;20022;-51
2022/10/24 08:18:31;;;;;;;4.10;1.13;;;;;;;12.89;48.15;101786.19;5012388;28;20068;-51
2022/10/24 08:21:04;;;;;;;1.83;0.90;;;;;;;12.47;49.03;101792.53;5010987;28;20026;-47
2022/10/24 08:23:32;;;;;;;3.08;0.90;;;;;;;12.31;49.68;101805.19;5010845;28;20483;-49
2022/10/24 08:25:59;;;;;;;2.15;0.90;;;;;;;12.39;49.84;101796.19;5011322;28;20080;-51
2022/10/24 08:28:25;;;;;;;1.58;0.60;;;;;;;12.17;50.58;101798.06;5012256;28;20084;-49
2022/10/24 08:30:58;;;;;;;1.67;0.88;;;;;;;12.23;50.97;101788.41;5009171;28;20034;-47
2022/10/24 08:33:25;;;;;;;5.15;1.10;;;;;;;12.37;50.55;101788.31;5002676;28;20143;-47
2022/10/24 08:35:55;;;;;;;2.38;0.80;;;;;;;12.13;50.91;101784.19;4999693;28;20036;-47
2022/10/24 08:38:22;;;;;;;1.58;0.70;;;;;;;12.04;51.12;101779.16;4998212;28;20026;-49
2022/10/24 08:40:48;;;;;;;2.95;0.90;;;;;;;11.97;51.36;101780.94;4992010;28;20490;-54
2022/10/24 08:43:17;;;;;;;2.10;0.70;;;;;;;11.97;51.29;101791.69;4996233;28;20033;-51
2022/10/24 08:46:37;;;;;;;2.63;1.23;;;;;;;11.87;51.77;101781.25;5011954;28;20041;-53
2022/10/24 08:49:27;;;;;;;2.63;1.00;;;;;;;11.72;52.58;101791.22;4971349;28;20038;-52
2022/10/24 08:52:02;;;;;;;2.45;0.90;;;;;;;11.71;52.46;101793.03;5008046;28;20068;-53
2022/10/24 08:54:36;;;;;;;2.38;0.90;;;;;;;11.70;52.30;101787.88;5011929;28;20041;-53
2022/10/24 08:57:05;;;;;;;2.38;0.80;;;;;;;11.72;52.12;101789.34;5011416;28;20451;-53
2022/10/24 08:59:35;;;;;;;3.25;1.10;;;;;;;11.86;52.41;101784.97;5010842;28;20394;-55
2022/10/24 09:02:15;;;;;;;3.00;0.95;;;;;;;11.84;52.54;101790.53;5011521;28;20045;-53
2022/10/24 09:04:50;;;;;;;2.53;1.33;;;;;;;11.74;52.92;101795.34;5011424;28;20068;-55
2022/10/24 09:07:19;;;;;;;2.92;0.95;;;;;;;11.51;53.48;101792.84;5011310;28;20580;-54
2022/10/24 09:09:49;;;;;;;1.88;0.90;;;;;;;10.97;55.06;101795.03;5011543;28;20541;-53
2022/10/24 09:12:19;;;;;;;4.43;1.08;;;;;;;11.18;54.86;101800.47;5011386;28;20026;-52
2022/10/24 09:14:53;;;;;;;2.80;0.80;;;;;;;11.20;54.43;101803.78;5011499;28;20390;-53
2022/10/24 09:17:19;;;;;;;2.03;0.68;;;;;;;11.46;53.86;101811.34;5010955;28;20421;-54
2022/10/24 09:19:57;;;;;;;3.90;0.95;;;;;;;11.56;53.15;101819.91;5011423;28;20042;-54
2022/10/24 09:22:26;;;;;;;2.00;0.88;;;;;;;11.46;53.80;101824.72;4995188;28;20181;-53
2022/10/24 09:24:58;;;;;;;0.98;0.60;;;;;;;11.57;53.72;101831.47;4992095;28;20072;-54
2022/10/24 09:27:32;;;;;;;2.00;0.60;;;;;;;11.50;53.91;101828.72;5004232;28;20044;-54
2022/10/24 09:29:59;;;;;;;3.22;0.90;;;;;;;11.55;53.94;101828.16;5011773;28;20072;-54
2022/10/24 09:32:29;;;;;;;3.17;0.82;;;;;;;11.51;54.05;101829.53;5008129;28;20029;-54
2022/10/24 09:35:00;;;;;;;1.33;0.60;;;;;;;11.44;54.11;101839.31;5011597;28;20029;-54
2022/10/24 09:37:38;;;;;;;1.13;0.60;;;;;;;11.41;54.72;101835.19;5009305;28;20022;-54
2022/10/24 09:40:24;;;;;;;6.53;1.08;;;;;;;11.37;54.64;101839.25;5011562;28;20018;-54
2022/10/24 09:42:59;;;;;;;1.70;0.90;;;;;;;11.32;55.24;101831.75;5011566;28;20064;-53
2022/10/24 09:45:42;;;;;;;3.90;1.33;;;;;;;11.34;55.29;101827.06;5010244;28;20026;-54
2022/10/24 09:48:22;;;;;;;2.97;0.93;;;;;;;11.51;55.18;101825.00;5011045;28;20054;-55
2022/10/24 09:50:51;;;;;;;3.15;1.17;;;;;;;11.35;55.20;101830.56;5009549;28;20048;-55
2022/10/24 09:53:25;;;;;;;3.75;1.00;;;;;;;11.24;55.63;101829.19;5011606;28;20508;-54
2022/10/24 09:55:56;;;;;;;3.00;1.02;;;;;;;11.10;56.38;101828.22;5009901;28;20028;-54
2022/10/24 09:58:36;;;;;;;3.92;0.82;;;;;;;11.27;56.24;101842.25;5010974;28;20037;-54
2022/10/24 10:01:15;;;;;;;3.20;0.77;;;;;;;11.32;55.84;101844.34;5007979;28;20037;-54
2022/10/24 10:03:42;;;;;;;1.90;0.75;;;;;;;11.20;56.10;101837.78;5011335;28;20482;-54
2022/10/24 10:06:18;;;;;;;1.70;1.00;;;;;;;11.23;56.24;101842.78;5013181;28;20167;-55
2022/10/24 10:08:54;;;;;;;1.27;0.70;;;;;;;11.31;56.08;101843.50;5014976;28;20033;-55
2022/10/24 10:11:29;;;;;;;4.05;0.93;;;;;;;11.15;55.95;101845.56;5013477;28;20040;-54
2022/10/24 10:13:59;;;;;;;2.92;1.20;;;;;;;11.08;56.03;101835.56;5011608;28;20030;-54
2022/10/24 10:16:27;;;;;;;3.55;1.00;;;;;;;11.40;55.65;101835.38;5013559;28;20073;-54
2022/10/24 10:19:14;;;;;;;2.22;0.90;;;;;;;11.44;55.61;101829.47;5015282;28;20026;-53
2022/10/24 10:21:59;;;;;;;2.67;0.80;;;;;;;11.01;56.29;101829.31;5012821;28;20111;-53
2022/10/24 10:24:34;;;;;;;2.95;0.80;;;;;;;10.95;56.64;101838.06;5014606;28;20085;-54
2022/10/24 10:27:01;;;;;;;1.15;0.63;;;;;;;10.86;57.03;101844.53;5013039;28;20033;-54
2022/10/24 10:29:27;;;;;;;5.35;0.80;;;;;;;10.86;57.11;101841.03;5014478;28;20549;-55
2022/10/24 10:32:06;;;;;;;3.20;0.95;;;;;;;10.53;58.39;101836.81;5012067;28;20076;-54
2022/10/24 10:34:46;;;;;;;3.72;1.00;;;;;;;10.71;57.65;101835.63;5014565;28;20034;-54
2022/10/24 10:37:34;;;;;;;3.03;0.68;;;;;;;10.65;57.70;101834.53;5012990;28;20105;-54
2022/10/24 10:40:20;;;;;;;1.73;0.77;;;;;;;10.69;57.61;101818.94;5013343;28;20049;-54
2022/10/24 10:42:55;;;;;;;3.53;0.63;;;;;;;10.78;57.60;101824.03;4994834;28;20053;-53
2022/10/24 10:45:33;;;;;;;2.58;0.65;;;;;;;10.92;57.35;101833.06;4997337;28;20112;-54
2022/10/24 10:48:20;;;;;;;2.42;0.95;;;;;;;10.65;58.14;101839.03;5014222;28;20510;-54
2022/10/24 10:51:14;;;;;;;5.93;1.50;;;;;;;10.73;57.91;101847.84;4995378;28;20398;-54
2022/10/24 10:53:53;;;;;;;2.97;0.90;;;;;;;10.61;58.05;101835.09;5014153;28;20049;-54
2022/10/24 10:56:44;;;;;;;4.97;1.00;;;;;;;10.72;57.91;101834.66;5012328;28;20117;-53
2022/10/24 10:59:47;;;;;;;2.58;0.90;;;;;;;10.24;59.70;101836.72;5014054;28;20034;-54
2022/10/24 11:02:42;;;;;;;1.25;0.70;;;;;;;10.03;60.79;101834.69;5012243;28;20049;-52
2022/10/24 11:05:32;;;;;;;4.32;0.88;;;;;;;10.26;60.15;101827.50;4992234;28;20062;-54
2022/10/24 11:08:03;;;;;;;1.25;0.60;;;;;;;10.41;59.66;101832.06;4994224;28;20414;-54
2022/10/24 11:10:38;;;;;;;2.15;0.95;;;;;;;10.40;59.47;101841.94;4994833;28;20512;-54
2022/10/24 11:13:11;;;;;;;1.75;0.60;;;;;;;10.41;59.45;101832.91;5014110;28;20065;-54
2022/10/24 11:15:44;;;;;;;1.30;0.70;;;;;;;10.46;59.18;101827.00;5011343;28;20136;-53
2022/10/24 11:18:39;;;;;;;3.20;0.98;;;;;;;10.56;59.10;101835.63;5013423;28;20034;-52
2022/10/24 11:21:08;;;;;;;2.00;0.77;;;;;;;10.46;59.21;101835.88;5009069;28;20463;-54
2022/10/24 11:23:43;;;;;;;1.35;0.50;;;;;;;10.53;59.31;101842.16;5013833;28;20076;-55
2022/10/24 11:26:17;;;;;;;2.33;1.05;;;;;;;10.81;58.95;101837.03;5012280;28;20034;-55
2022/10/24 11:28:49;;;;;;;2.78;0.73;;;;;;;10.51;59.75;101846.88;5013577;28;20045;-54
2022/10/24 11:31:47;;;;;;;2.22;0.95;;;;;;;10.43;60.13;101846.09;5012389;28;20482;-52
2022/10/24 11:34:41;;;;;;;2.55;0.90;;;;;;;10.68;59.35;101847.56;4994564;28;20513;-54
2022/10/24 11:37:18;;;;;;;2.00;0.98;;;;;;;10.64;59.34;101851.59;4966756;28;20050;-54
2022/10/24 11:39:50;;;;;;;1.38;0.60;;;;;;;10.56;59.32;101849.84;5010669;28;20368;-53
2022/10/24 11:42:50;;;;;;;2.38;0.63;;;;;;;10.80;59.11;101864.84;4993423;28;20094;-54